Wednesday, November 22, 2017, 8:02 AM EST
Back to Local

KGFL, Floyd Bennett Memorial Airport

Location: Queensbury, NY, United States Lat: 43.333
Local Time: 8:02 AM EST (13:02 GMT) Lon: -73.617
Time Zone: US/Eastern Elev: 328 ft

Show me the last for .
Show Decoded

2017-11-22 06:53 METAR KGFL 221153Z AUTO 00000KT 10SM SCT110 M01/M02 A2989 RMK AO2 SLP130
                 T10061017 10000 21033 55010 =
2017-11-22 05:53 METAR KGFL 221053Z AUTO 00000KT 10SM OVC100 M01/M01 A2989 RMK AO2 SLP128
                 T10061011 =
2017-11-22 04:53 METAR KGFL 220953Z AUTO 00000KT 10SM OVC095 M01/M02 A2991 RMK AO2 SLP136
                 T10061017 =
2017-11-22 03:53 METAR KGFL 220853Z AUTO 00000KT 10SM CLR M02/M03 A2992 RMK AO2 SLP139 T10171033
                 53001 =
2017-11-22 02:53 METAR KGFL 220753Z AUTO 00000KT 10SM CLR M02/M04 A2992 RMK AO2 SLP139 T10221039
                 =
2017-11-22 01:53 METAR KGFL 220653Z AUTO 00000KT 10SM CLR M01/M04 A2992 RMK AO2 SLP137 T10111039
                 =
2017-11-22 00:53 METAR KGFL 220553Z AUTO 24004KT 10SM CLR M01/M03 A2992 RMK AO2 SLP138 T10111033
                 10028 21028 58003 =
2017-11-21 23:53 METAR KGFL 220453Z AUTO 25004KT 10SM CLR M01/M03 A2994 RMK AO2 SLP144 T10111028
                 401221056 =
2017-11-21 22:53 METAR KGFL 220353Z AUTO 23003KT 10SM CLR M02/M04 A2993 RMK AO2 SLP142 T10171039
                 =
2017-11-21 21:53 METAR KGFL 220253Z AUTO 23004KT 10SM CLR M02/M04 A2993 RMK AO2 SLP142 T10171039
                 51009 =
2017-11-21 20:53 METAR KGFL 220153Z AUTO 23004KT 10SM CLR M01/M03 A2993 RMK AO2 SLP141 T10111033
                 =
2017-11-21 19:53 METAR KGFL 220053Z AUTO 23003KT 10SM CLR 00/M04 A2992 RMK AO2 SLP141 T00001039 =
2017-11-21 18:53 METAR KGFL 212353Z AUTO 20005KT 10SM CLR 03/M03 A2990 RMK AO2 SLP135 T00281028
                 10122 20011 51011 =
2017-11-21 17:53 METAR KGFL 212253Z AUTO 00000KT 10SM CLR 03/M03 A2990 RMK AO2 SLP133 T00281033 =
2017-11-21 16:53 METAR KGFL 212153Z AUTO 21004KT 10SM CLR 09/M03 A2989 RMK AO2 SLP128 T00891033 =
2017-11-21 15:53 METAR KGFL 212053Z AUTO 20006KT 10SM CLR 10/M04 A2987 RMK AO2 SLP121 T01001039
                 53000 =
2017-11-21 14:53 METAR KGFL 211953Z AUTO 20010KT 10SM CLR 12/M04 A2985 RMK AO2 SLP114 T01171039 =
2017-11-21 13:53 METAR KGFL 211853Z AUTO 20015G21KT 10SM CLR 12/M04 A2986 RMK AO2 SLP117
                 T01171039 =
2017-11-21 12:53 METAR KGFL 211753Z AUTO 20013G20KT 10SM CLR 11/M03 A2987 RMK AO2 SLP120
                 T01111033 10111 21056 58034 =
2017-11-21 11:53 METAR KGFL 211653Z AUTO 21017G21KT 10SM CLR 10/M03 A2990 RMK AO2 SLP130
                 T01001033 =
2017-11-21 10:53 METAR KGFL 211553Z AUTO 21008G16KT 10SM CLR 07/M03 A2994 RMK AO2 SLP144
                 T00671033 =
2017-11-21 09:53 METAR KGFL 211453Z AUTO 20010KT 10SM CLR 05/M03 A2997 RMK AO2 SLP155 T00501033
                 58014 =
2017-11-21 08:53 METAR KGFL 211353Z AUTO 19008KT 10SM CLR 03/M03 A2999 RMK AO2 SLP163 T00281028 =

Support USWX by starting your Amazon purchase here.